sensor_id;sensor_type;location;lat;lon;timestamp;temperature;humidity
20528;DHT22;23612;50.894;10.700;2024-01-25T00:01:21;7.00;99.90
20528;DHT22;23612;50.894;10.700;2024-01-25T00:03:47;7.10;99.90
20528;DHT22;23612;50.894;10.700;2024-01-25T00:06:12;7.00;99.90
20528;DHT22;23612;50.894;10.700;2024-01-25T00:08:38;7.00;99.90
20528;DHT22;23612;50.894;10.700;2024-01-25T00:11:04;7.00;99.90
20528;DHT22;23612;50.894;10.700;2024-01-25T00:13:29;7.00;99.90
20528;DHT22;23612;50.894;10.700;2024-01-25T00:15:55;7.00;99.90
20528;DHT22;23612;50.894;10.700;2024-01-25T00:18:20;6.90;99.90
20528;DHT22;23612;50.894;10.700;2024-01-25T00:20:46;6.90;99.90
20528;DHT22;23612;50.894;10.700;2024-01-25T00:23:12;6.90;99.90
20528;DHT22;23612;50.894;10.700;2024-01-25T00:25:37;6.90;99.90
20528;DHT22;23612;50.894;10.700;2024-01-25T00:28:03;6.90;99.90
20528;DHT22;23612;50.894;10.700;2024-01-25T00:30:29;6.90;99.90
20528;DHT22;23612;50.894;10.700;2024-01-25T00:32:56;6.90;99.90
20528;DHT22;23612;50.894;10.700;2024-01-25T00:35:22;6.90;99.90
20528;DHT22;23612;50.894;10.700;2024-01-25T00:37:48;7.00;99.90
20528;DHT22;23612;50.894;10.700;2024-01-25T00:40:13;7.00;99.90
20528;DHT22;23612;50.894;10.700;2024-01-25T00:42:43;7.00;99.90
20528;DHT22;23612;50.894;10.700;2024-01-25T00:45:09;7.00;99.90
20528;DHT22;23612;50.894;10.700;2024-01-25T00:47:35;7.10;99.90
20528;DHT22;23612;50.894;10.700;2024-01-25T00:50:01;7.10;99.90
20528;DHT22;23612;50.894;10.700;2024-01-25T00:52:26;7.10;99.90
20528;DHT22;23612;50.894;10.700;2024-01-25T00:54:52;7.10;99.90
20528;DHT22;23612;50.894;10.700;2024-01-25T00:57:18;7.10;99.90
20528;DHT22;23612;50.894;10.700;2024-01-25T00:59:44;7.20;99.90
20528;DHT22;23612;50.894;10.700;2024-01-25T01:02:11;7.20;99.90
20528;DHT22;23612;50.894;10.700;2024-01-25T01:04:38;7.10;99.90
20528;DHT22;23612;50.894;10.700;2024-01-25T01:07:04;7.10;99.90
20528;DHT22;23612;50.894;10.700;2024-01-25T01:09:29;7.10;99.90
20528;DHT22;23612;50.894;10.700;2024-01-25T01:11:55;7.00;99.90
20528;DHT22;23612;50.894;10.700;2024-01-25T01:14:20;7.00;99.90
20528;DHT22;23612;50.894;10.700;2024-01-25T01:16:46;7.00;99.90
20528;DHT22;23612;50.894;10.700;2024-01-25T01:19:11;7.00;99.90
20528;DHT22;23612;50.894;10.700;2024-01-25T01:21:37;6.90;99.90
20528;DHT22;23612;50.894;10.700;2024-01-25T01:24:04;6.80;99.90
20528;DHT22;23612;50.894;10.700;2024-01-25T01:26:29;6.80;99.90
20528;DHT22;23612;50.894;10.700;2024-01-25T01:28:55;6.70;99.90
20528;DHT22;23612;50.894;10.700;2024-01-25T01:31:20;6.60;99.90
20528;DHT22;23612;50.894;10.700;2024-01-25T01:33:46;6.60;99.90
20528;DHT22;23612;50.894;10.700;2024-01-25T01:36:12;6.60;99.90
20528;DHT22;23612;50.894;10.700;2024-01-25T01:38:37;6.50;99.90
20528;DHT22;23612;50.894;10.700;2024-01-25T01:41:03;6.60;99.90
20528;DHT22;23612;50.894;10.700;2024-01-25T01:43:28;6.60;99.90
20528;DHT22;23612;50.894;10.700;2024-01-25T01:46:01;6.50;99.90
20528;DHT22;23612;50.894;10.700;2024-01-25T01:48:29;6.50;99.90
20528;DHT22;23612;50.894;10.700;2024-01-25T01:50:55;6.50;99.90
20528;DHT22;23612;50.894;10.700;2024-01-25T01:53:20;6.40;99.90
20528;DHT22;23612;50.894;10.700;2024-01-25T01:55:46;6.50;99.90
20528;DHT22;23612;50.894;10.700;2024-01-25T01:58:12;6.40;99.90
20528;DHT22;23612;50.894;10.700;2024-01-25T02:00:38;6.40;99.90
20528;DHT22;23612;50.894;10.700;2024-01-25T02:03:06;6.30;99.90
20528;DHT22;23612;50.894;10.700;2024-01-25T02:05:32;6.40;99.90
20528;DHT22;23612;50.894;10.700;2024-01-25T02:07:57;6.40;99.90
20528;DHT22;23612;50.894;10.700;2024-01-25T02:10:23;6.30;99.90
20528;DHT22;23612;50.894;10.700;2024-01-25T02:12:48;6.40;99.90
20528;DHT22;23612;50.894;10.700;2024-01-25T02:15:14;6.30;99.90
20528;DHT22;23612;50.894;10.700;2024-01-25T02:17:39;6.30;99.90
20528;DHT22;23612;50.894;10.700;2024-01-25T02:20:06;6.20;99.90
20528;DHT22;23612;50.894;10.700;2024-01-25T02:22:31;6.20;99.90
20528;DHT22;23612;50.894;10.700;2024-01-25T02:24:58;6.20;99.90
20528;DHT22;23612;50.894;10.700;2024-01-25T02:27:23;6.30;99.90
20528;DHT22;23612;50.894;10.700;2024-01-25T02:29:48;6.30;99.90
20528;DHT22;23612;50.894;10.700;2024-01-25T02:32:14;6.20;99.90
20528;DHT22;23612;50.894;10.700;2024-01-25T02:34:39;6.30;99.90
20528;DHT22;23612;50.894;10.700;2024-01-25T02:37:05;6.20;99.90
20528;DHT22;23612;50.894;10.700;2024-01-25T02:39:31;6.20;99.90
20528;DHT22;23612;50.894;10.700;2024-01-25T02:41:56;6.20;99.90
20528;DHT22;23612;50.894;10.700;2024-01-25T02:44:22;6.20;99.90
20528;DHT22;23612;50.894;10.700;2024-01-25T02:46:47;6.20;99.90
20528;DHT22;23612;50.894;10.700;2024-01-25T02:49:13;6.20;99.90
20528;DHT22;23612;50.894;10.700;2024-01-25T02:51:38;6.10;99.90
20528;DHT22;23612;50.894;10.700;2024-01-25T02:54:04;6.20;99.90
20528;DHT22;23612;50.894;10.700;2024-01-25T02:56:29;6.10;99.90
20528;DHT22;23612;50.894;10.700;2024-01-25T02:59:00;6.10;99.90
20528;DHT22;23612;50.894;10.700;2024-01-25T03:01:26;6.10;99.90
20528;DHT22;23612;50.894;10.700;2024-01-25T03:03:52;6.10;99.90
20528;DHT22;23612;50.894;10.700;2024-01-25T03:06:17;6.10;99.90
20528;DHT22;23612;50.894;10.700;2024-01-25T03:08:42;6.10;99.90
20528;DHT22;23612;50.894;10.700;2024-01-25T03:11:08;6.10;99.90
20528;DHT22;23612;50.894;10.700;2024-01-25T03:13:34;6.10;99.90
20528;DHT22;23612;50.894;10.700;2024-01-25T03:15:59;6.00;99.90
20528;DHT22;23612;50.894;10.700;2024-01-25T03:18:25;6.00;99.90
20528;DHT22;23612;50.894;10.700;2024-01-25T03:20:51;6.10;99.90
20528;DHT22;23612;50.894;10.700;2024-01-25T03:23:16;6.10;99.90
20528;DHT22;23612;50.894;10.700;2024-01-25T03:25:42;6.10;99.90
20528;DHT22;23612;50.894;10.700;2024-01-25T03:28:07;6.20;99.90
20528;DHT22;23612;50.894;10.700;2024-01-25T03:30:34;6.20;99.90
20528;DHT22;23612;50.894;10.700;2024-01-25T03:33:00;6.30;99.90
20528;DHT22;23612;50.894;10.700;2024-01-25T03:35:25;6.30;99.90
20528;DHT22;23612;50.894;10.700;2024-01-25T03:37:51;6.20;99.90
20528;DHT22;23612;50.894;10.700;2024-01-25T03:40:16;6.10;99.90
20528;DHT22;23612;50.894;10.700;2024-01-25T03:42:42;6.10;99.90
20528;DHT22;23612;50.894;10.700;2024-01-25T03:45:08;6.10;99.90
20528;DHT22;23612;50.894;10.700;2024-01-25T03:47:33;6.00;99.90
20528;DHT22;23612;50.894;10.700;2024-01-25T03:49:59;6.00;99.90
20528;DHT22;23612;50.894;10.700;2024-01-25T03:52:25;6.00;99.90
20528;DHT22;23612;50.894;10.700;2024-01-25T03:54:50;5.90;99.90
20528;DHT22;23612;50.894;10.700;2024-01-25T03:57:16;6.00;99.90
20528;DHT22;23612;50.894;10.700;2024-01-25T03:59:41;5.90;99.90
20528;DHT22;23612;50.894;10.700;2024-01-25T04:02:07;5.90;99.90
20528;DHT22;23612;50.894;10.700;2024-01-25T04:04:33;6.00;99.90
20528;DHT22;23612;50.894;10.700;2024-01-25T04:06:59;5.90;99.90
20528;DHT22;23612;50.894;10.700;2024-01-25T04:09:24;5.90;99.90
20528;DHT22;23612;50.894;10.700;2024-01-25T04:11:50;5.90;99.90
20528;DHT22;23612;50.894;10.700;2024-01-25T04:14:15;5.90;99.90
20528;DHT22;23612;50.894;10.700;2024-01-25T04:16:41;5.90;99.90
20528;DHT22;23612;50.894;10.700;2024-01-25T04:19:06;6.00;99.90
20528;DHT22;23612;50.894;10.700;2024-01-25T04:21:32;6.20;99.90
20528;DHT22;23612;50.894;10.700;2024-01-25T04:23:57;6.20;99.90
20528;DHT22;23612;50.894;10.700;2024-01-25T04:26:23;6.30;99.90
20528;DHT22;23612;50.894;10.700;2024-01-25T04:28:49;6.30;99.90
20528;DHT22;23612;50.894;10.700;2024-01-25T04:31:14;6.20;99.90
20528;DHT22;23612;50.894;10.700;2024-01-25T04:33:40;6.30;99.90
20528;DHT22;23612;50.894;10.700;2024-01-25T04:36:05;6.30;99.90
20528;DHT22;23612;50.894;10.700;2024-01-25T04:38:31;6.30;99.90
20528;DHT22;23612;50.894;10.700;2024-01-25T04:40:57;6.30;99.90
20528;DHT22;23612;50.894;10.700;2024-01-25T04:43:22;6.30;99.90
20528;DHT22;23612;50.894;10.700;2024-01-25T04:45:48;6.30;99.90
20528;DHT22;23612;50.894;10.700;2024-01-25T04:48:13;6.20;99.90
20528;DHT22;23612;50.894;10.700;2024-01-25T04:50:38;6.20;99.90
20528;DHT22;23612;50.894;10.700;2024-01-25T04:53:04;6.20;99.90
20528;DHT22;23612;50.894;10.700;2024-01-25T04:55:30;6.20;99.90
20528;DHT22;23612;50.894;10.700;2024-01-25T04:57:55;6.20;99.90
20528;DHT22;23612;50.894;10.700;2024-01-25T05:00:22;6.20;99.90
20528;DHT22;23612;50.894;10.700;2024-01-25T05:02:48;6.20;99.90
20528;DHT22;23612;50.894;10.700;2024-01-25T05:05:14;6.20;99.90
20528;DHT22;23612;50.894;10.700;2024-01-25T05:07:39;6.20;99.90
20528;DHT22;23612;50.894;10.700;2024-01-25T05:10:05;6.20;99.90
20528;DHT22;23612;50.894;10.700;2024-01-25T05:12:31;6.20;99.90
20528;DHT22;23612;50.894;10.700;2024-01-25T05:14:57;6.20;99.90
20528;DHT22;23612;50.894;10.700;2024-01-25T05:17:23;6.20;99.90
20528;DHT22;23612;50.894;10.700;2024-01-25T05:19:48;6.10;99.90
20528;DHT22;23612;50.894;10.700;2024-01-25T05:22:14;6.10;99.90
20528;DHT22;23612;50.894;10.700;2024-01-25T05:24:39;6.10;99.90
20528;DHT22;23612;50.894;10.700;2024-01-25T05:27:05;6.10;99.90
20528;DHT22;23612;50.894;10.700;2024-01-25T05:29:30;6.10;99.90
20528;DHT22;23612;50.894;10.700;2024-01-25T05:31:56;6.10;99.90
20528;DHT22;23612;50.894;10.700;2024-01-25T05:34:21;6.10;99.90
20528;DHT22;23612;50.894;10.700;2024-01-25T05:36:47;6.10;99.90
20528;DHT22;23612;50.894;10.700;2024-01-25T05:39:13;6.10;99.90
20528;DHT22;23612;50.894;10.700;2024-01-25T05:41:38;6.00;99.90
20528;DHT22;23612;50.894;10.700;2024-01-25T05:44:04;6.00;99.90
20528;DHT22;23612;50.894;10.700;2024-01-25T05:46:30;6.00;99.90
20528;DHT22;23612;50.894;10.700;2024-01-25T05:48:55;6.10;99.90
20528;DHT22;23612;50.894;10.700;2024-01-25T05:51:21;6.00;99.90
20528;DHT22;23612;50.894;10.700;2024-01-25T05:53:46;6.00;99.90
20528;DHT22;23612;50.894;10.700;2024-01-25T05:56:12;6.00;99.90
20528;DHT22;23612;50.894;10.700;2024-01-25T05:58:37;6.10;99.90
20528;DHT22;23612;50.894;10.700;2024-01-25T06:01:03;6.10;99.90
20528;DHT22;23612;50.894;10.700;2024-01-25T06:03:28;6.10;99.90
20528;DHT22;23612;50.894;10.700;2024-01-25T06:05:53;6.10;99.90
20528;DHT22;23612;50.894;10.700;2024-01-25T06:08:19;6.00;99.90
20528;DHT22;23612;50.894;10.700;2024-01-25T06:10:44;6.00;99.90
20528;DHT22;23612;50.894;10.700;2024-01-25T06:13:10;6.10;99.90
20528;DHT22;23612;50.894;10.700;2024-01-25T06:15:36;6.00;99.90
20528;DHT22;23612;50.894;10.700;2024-01-25T06:18:01;6.00;99.90
20528;DHT22;23612;50.894;10.700;2024-01-25T06:20:28;6.00;99.90
20528;DHT22;23612;50.894;10.700;2024-01-25T06:22:53;6.00;99.90
20528;DHT22;23612;50.894;10.700;2024-01-25T06:25:19;6.00;99.90
20528;DHT22;23612;50.894;10.700;2024-01-25T06:27:44;6.00;99.90
20528;DHT22;23612;50.894;10.700;2024-01-25T06:30:10;5.90;99.90
20528;DHT22;23612;50.894;10.700;2024-01-25T06:32:36;5.90;99.90
20528;DHT22;23612;50.894;10.700;2024-01-25T06:35:03;5.90;99.90
20528;DHT22;23612;50.894;10.700;2024-01-25T06:37:29;5.90;99.90
20528;DHT22;23612;50.894;10.700;2024-01-25T06:39:55;5.90;99.90
20528;DHT22;23612;50.894;10.700;2024-01-25T06:42:20;5.90;99.90
20528;DHT22;23612;50.894;10.700;2024-01-25T06:44:47;5.90;99.90
20528;DHT22;23612;50.894;10.700;2024-01-25T06:47:12;5.90;99.90
20528;DHT22;23612;50.894;10.700;2024-01-25T06:49:38;5.80;99.90
20528;DHT22;23612;50.894;10.700;2024-01-25T06:52:04;5.80;99.90
20528;DHT22;23612;50.894;10.700;2024-01-25T06:54:30;5.80;99.90
20528;DHT22;23612;50.894;10.700;2024-01-25T06:56:56;5.80;99.90
20528;DHT22;23612;50.894;10.700;2024-01-25T06:59:22;5.90;99.90
20528;DHT22;23612;50.894;10.700;2024-01-25T07:01:47;5.90;99.90
20528;DHT22;23612;50.894;10.700;2024-01-25T07:04:13;5.90;99.90
20528;DHT22;23612;50.894;10.700;2024-01-25T07:06:38;5.90;99.90
20528;DHT22;23612;50.894;10.700;2024-01-25T07:09:04;6.00;99.90
20528;DHT22;23612;50.894;10.700;2024-01-25T07:11:30;6.00;99.90
20528;DHT22;23612;50.894;10.700;2024-01-25T07:13:55;6.00;99.90
20528;DHT22;23612;50.894;10.700;2024-01-25T07:16:21;6.10;99.90
20528;DHT22;23612;50.894;10.700;2024-01-25T07:18:47;6.20;99.90
20528;DHT22;23612;50.894;10.700;2024-01-25T07:21:12;6.30;99.90
20528;DHT22;23612;50.894;10.700;2024-01-25T07:23:37;6.40;99.90
20528;DHT22;23612;50.894;10.700;2024-01-25T07:26:03;6.50;99.90
20528;DHT22;23612;50.894;10.700;2024-01-25T07:28:29;6.50;99.90
20528;DHT22;23612;50.894;10.700;2024-01-25T07:30:54;6.50;99.90
20528;DHT22;23612;50.894;10.700;2024-01-25T07:33:19;6.40;99.90
20528;DHT22;23612;50.894;10.700;2024-01-25T07:35:45;6.40;99.90
20528;DHT22;23612;50.894;10.700;2024-01-25T07:38:14;6.40;99.90
20528;DHT22;23612;50.894;10.700;2024-01-25T07:40:41;6.50;99.90
20528;DHT22;23612;50.894;10.700;2024-01-25T07:43:06;6.50;99.90
20528;DHT22;23612;50.894;10.700;2024-01-25T07:45:32;6.60;99.90
20528;DHT22;23612;50.894;10.700;2024-01-25T07:47:58;6.60;99.90
20528;DHT22;23612;50.894;10.700;2024-01-25T07:50:23;6.60;99.90
20528;DHT22;23612;50.894;10.700;2024-01-25T07:52:49;6.50;99.90
20528;DHT22;23612;50.894;10.700;2024-01-25T07:55:18;6.60;99.90
20528;DHT22;23612;50.894;10.700;2024-01-25T07:57:43;6.60;99.90
20528;DHT22;23612;50.894;10.700;2024-01-25T08:00:09;6.70;99.90
20528;DHT22;23612;50.894;10.700;2024-01-25T08:02:35;6.80;99.90
20528;DHT22;23612;50.894;10.700;2024-01-25T08:05:02;6.90;99.90
20528;DHT22;23612;50.894;10.700;2024-01-25T08:07:28;6.80;99.90
20528;DHT22;23612;50.894;10.700;2024-01-25T08:09:54;6.70;99.90
20528;DHT22;23612;50.894;10.700;2024-01-25T08:12:24;6.80;99.90
20528;DHT22;23612;50.894;10.700;2024-01-25T08:14:49;6.80;99.90
20528;DHT22;23612;50.894;10.700;2024-01-25T08:17:14;6.80;99.90
20528;DHT22;23612;50.894;10.700;2024-01-25T08:19:40;6.80;99.90
20528;DHT22;23612;50.894;10.700;2024-01-25T08:22:06;6.90;99.90
20528;DHT22;23612;50.894;10.700;2024-01-25T08:24:31;6.80;99.90
20528;DHT22;23612;50.894;10.700;2024-01-25T08:26:57;6.80;99.90
20528;DHT22;23612;50.894;10.700;2024-01-25T08:29:22;6.70;99.90
20528;DHT22;23612;50.894;10.700;2024-01-25T08:31:48;6.80;99.90
20528;DHT22;23612;50.894;10.700;2024-01-25T08:34:13;6.90;99.90
20528;DHT22;23612;50.894;10.700;2024-01-25T08:36:39;7.00;99.90
20528;DHT22;23612;50.894;10.700;2024-01-25T08:39:05;7.00;99.90
20528;DHT22;23612;50.894;10.700;2024-01-25T08:41:31;7.00;99.90
20528;DHT22;23612;50.894;10.700;2024-01-25T08:43:56;7.00;99.90
20528;DHT22;23612;50.894;10.700;2024-01-25T08:46:22;7.00;99.90
20528;DHT22;23612;50.894;10.700;2024-01-25T08:48:47;6.90;99.90
20528;DHT22;23612;50.894;10.700;2024-01-25T08:51:12;6.90;99.90
20528;DHT22;23612;50.894;10.700;2024-01-25T08:53:38;6.80;99.90
20528;DHT22;23612;50.894;10.700;2024-01-25T08:56:04;6.70;99.90
20528;DHT22;23612;50.894;10.700;2024-01-25T08:58:30;6.80;99.90
20528;DHT22;23612;50.894;10.700;2024-01-25T09:00:55;6.80;99.90
20528;DHT22;23612;50.894;10.700;2024-01-25T09:03:21;6.90;99.90
20528;DHT22;23612;50.894;10.700;2024-01-25T09:05:47;7.10;99.90
20528;DHT22;23612;50.894;10.700;2024-01-25T09:08:13;7.40;99.90
20528;DHT22;23612;50.894;10.700;2024-01-25T09:10:40;7.80;99.90
20528;DHT22;23612;50.894;10.700;2024-01-25T09:13:06;8.10;99.90
20528;DHT22;23612;50.894;10.700;2024-01-25T09:15:32;8.60;99.90
20528;DHT22;23612;50.894;10.700;2024-01-25T09:17:57;8.90;99.90
20528;DHT22;23612;50.894;10.700;2024-01-25T09:20:23;9.30;99.90
20528;DHT22;23612;50.894;10.700;2024-01-25T09:22:48;9.70;99.90
20528;DHT22;23612;50.894;10.700;2024-01-25T09:25:14;9.50;99.90
20528;DHT22;23612;50.894;10.700;2024-01-25T09:27:39;9.40;99.90
20528;DHT22;23612;50.894;10.700;2024-01-25T09:30:05;9.90;99.90
20528;DHT22;23612;50.894;10.700;2024-01-25T09:32:31;9.80;99.90
20528;DHT22;23612;50.894;10.700;2024-01-25T09:34:57;9.80;99.90
20528;DHT22;23612;50.894;10.700;2024-01-25T09:37:22;10.40;99.90
20528;DHT22;23612;50.894;10.700;2024-01-25T09:39:52;10.50;99.90
20528;DHT22;23612;50.894;10.700;2024-01-25T09:42:18;10.70;99.90
20528;DHT22;23612;50.894;10.700;2024-01-25T09:44:44;10.50;99.90
20528;DHT22;23612;50.894;10.700;2024-01-25T09:47:10;10.40;99.90
20528;DHT22;23612;50.894;10.700;2024-01-25T09:49:36;10.20;99.90
20528;DHT22;23612;50.894;10.700;2024-01-25T09:52:03;10.30;99.90
20528;DHT22;23612;50.894;10.700;2024-01-25T09:54:35;10.60;99.90
20528;DHT22;23612;50.894;10.700;2024-01-25T09:57:06;10.50;99.90
20528;DHT22;23612;50.894;10.700;2024-01-25T09:59:32;10.20;99.90
20528;DHT22;23612;50.894;10.700;2024-01-25T10:01:57;10.00;99.90
20528;DHT22;23612;50.894;10.700;2024-01-25T10:04:24;10.00;99.90
20528;DHT22;23612;50.894;10.700;2024-01-25T10:06:50;9.70;99.90
20528;DHT22;23612;50.894;10.700;2024-01-25T10:09:15;9.60;99.90
20528;DHT22;23612;50.894;10.700;2024-01-25T10:11:41;9.60;99.90
20528;DHT22;23612;50.894;10.700;2024-01-25T10:14:06;9.60;99.90
20528;DHT22;23612;50.894;10.700;2024-01-25T10:16:33;9.70;99.90
20528;DHT22;23612;50.894;10.700;2024-01-25T10:19:01;9.70;99.90
20528;DHT22;23612;50.894;10.700;2024-01-25T10:21:28;9.50;99.90
20528;DHT22;23612;50.894;10.700;2024-01-25T10:23:54;9.00;99.90
20528;DHT22;23612;50.894;10.700;2024-01-25T10:26:26;8.80;99.90
20528;DHT22;23612;50.894;10.700;2024-01-25T10:28:53;8.60;99.90
20528;DHT22;23612;50.894;10.700;2024-01-25T10:31:19;8.50;99.90
20528;DHT22;23612;50.894;10.700;2024-01-25T10:33:45;8.20;99.90
20528;DHT22;23612;50.894;10.700;2024-01-25T10:36:13;8.00;99.90
20528;DHT22;23612;50.894;10.700;2024-01-25T10:38:40;7.80;99.90
20528;DHT22;23612;50.894;10.700;2024-01-25T10:41:07;7.80;99.90
20528;DHT22;23612;50.894;10.700;2024-01-25T10:43:33;7.90;99.90
20528;DHT22;23612;50.894;10.700;2024-01-25T10:45:59;7.90;99.90
20528;DHT22;23612;50.894;10.700;2024-01-25T10:48:25;7.90;99.90
20528;DHT22;23612;50.894;10.700;2024-01-25T10:50:52;7.90;99.90
20528;DHT22;23612;50.894;10.700;2024-01-25T10:53:19;7.90;99.90
20528;DHT22;23612;50.894;10.700;2024-01-25T10:55:45;8.00;99.90
20528;DHT22;23612;50.894;10.700;2024-01-25T10:58:13;8.20;99.90
20528;DHT22;23612;50.894;10.700;2024-01-25T11:00:39;8.10;99.90
20528;DHT22;23612;50.894;10.700;2024-01-25T11:03:05;8.00;99.90
20528;DHT22;23612;50.894;10.700;2024-01-25T11:05:31;8.00;99.90
20528;DHT22;23612;50.894;10.700;2024-01-25T11:07:57;8.00;99.90
20528;DHT22;23612;50.894;10.700;2024-01-25T11:10:27;8.10;99.90
20528;DHT22;23612;50.894;10.700;2024-01-25T11:12:57;8.00;99.90
20528;DHT22;23612;50.894;10.700;2024-01-25T11:15:34;8.10;99.90
20528;DHT22;23612;50.894;10.700;2024-01-25T11:18:01;8.10;99.90
20528;DHT22;23612;50.894;10.700;2024-01-25T11:20:28;8.00;99.90
20528;DHT22;23612;50.894;10.700;2024-01-25T11:22:56;7.80;99.90
20528;DHT22;23612;50.894;10.700;2024-01-25T11:25:23;7.80;99.90
20528;DHT22;23612;50.894;10.700;2024-01-25T11:27:49;7.90;99.90
20528;DHT22;23612;50.894;10.700;2024-01-25T11:30:18;7.90;99.90
20528;DHT22;23612;50.894;10.700;2024-01-25T11:32:46;7.90;99.90
20528;DHT22;23612;50.894;10.700;2024-01-25T11:35:12;7.80;99.90
20528;DHT22;23612;50.894;10.700;2024-01-25T11:37:45;7.60;99.90
20528;DHT22;23612;50.894;10.700;2024-01-25T11:40:12;7.80;99.90
20528;DHT22;23612;50.894;10.700;2024-01-25T11:42:39;7.70;99.90
20528;DHT22;23612;50.894;10.700;2024-01-25T11:45:09;7.70;99.90
20528;DHT22;23612;50.894;10.700;2024-01-25T11:47:35;7.60;99.90
20528;DHT22;23612;50.894;10.700;2024-01-25T11:50:02;7.60;99.90
20528;DHT22;23612;50.894;10.700;2024-01-25T11:52:28;7.50;99.90
20528;DHT22;23612;50.894;10.700;2024-01-25T11:54:53;7.70;99.90
20528;DHT22;23612;50.894;10.700;2024-01-25T11:57:19;7.70;99.90
20528;DHT22;23612;50.894;10.700;2024-01-25T11:59:45;7.80;99.90
20528;DHT22;23612;50.894;10.700;2024-01-25T12:02:14;7.70;99.90
20528;DHT22;23612;50.894;10.700;2024-01-25T12:04:40;7.80;99.90
20528;DHT22;23612;50.894;10.700;2024-01-25T12:07:05;7.80;99.90
20528;DHT22;23612;50.894;10.700;2024-01-25T12:09:32;7.70;99.90
20528;DHT22;23612;50.894;10.700;2024-01-25T12:11:57;7.90;99.90
20528;DHT22;23612;50.894;10.700;2024-01-25T12:14:25;8.00;99.90
20528;DHT22;23612;50.894;10.700;2024-01-25T12:16:50;8.10;99.90
20528;DHT22;23612;50.894;10.700;2024-01-25T12:19:16;8.20;99.90
20528;DHT22;23612;50.894;10.700;2024-01-25T12:21:44;8.20;99.90
20528;DHT22;23612;50.894;10.700;2024-01-25T12:24:10;8.40;99.90
20528;DHT22;23612;50.894;10.700;2024-01-25T12:26:35;8.40;99.90
20528;DHT22;23612;50.894;10.700;2024-01-25T12:29:01;8.60;99.90
20528;DHT22;23612;50.894;10.700;2024-01-25T12:31:28;8.60;99.90
20528;DHT22;23612;50.894;10.700;2024-01-25T12:33:54;8.60;99.90
20528;DHT22;23612;50.894;10.700;2024-01-25T12:36:19;8.80;99.90
20528;DHT22;23612;50.894;10.700;2024-01-25T12:38:45;9.20;99.90
20528;DHT22;23612;50.894;10.700;2024-01-25T12:41:10;9.60;99.90
20528;DHT22;23612;50.894;10.700;2024-01-25T12:43:36;9.40;99.90
20528;DHT22;23612;50.894;10.700;2024-01-25T12:46:01;9.40;99.90
20528;DHT22;23612;50.894;10.700;2024-01-25T12:48:27;9.70;99.90
20528;DHT22;23612;50.894;10.700;2024-01-25T12:50:52;9.70;99.90
20528;DHT22;23612;50.894;10.700;2024-01-25T12:53:18;9.80;99.90
20528;DHT22;23612;50.894;10.700;2024-01-25T12:55:43;10.00;99.90
20528;DHT22;23612;50.894;10.700;2024-01-25T12:58:10;10.00;99.90
20528;DHT22;23612;50.894;10.700;2024-01-25T13:00:35;9.60;99.90
20528;DHT22;23612;50.894;10.700;2024-01-25T13:03:01;9.40;99.90
20528;DHT22;23612;50.894;10.700;2024-01-25T13:05:27;8.90;99.90
20528;DHT22;23612;50.894;10.700;2024-01-25T13:07:53;8.60;99.90
20528;DHT22;23612;50.894;10.700;2024-01-25T13:10:18;8.30;99.90
20528;DHT22;23612;50.894;10.700;2024-01-25T13:12:44;8.20;99.90
20528;DHT22;23612;50.894;10.700;2024-01-25T13:15:09;8.20;99.90
20528;DHT22;23612;50.894;10.700;2024-01-25T13:17:35;8.20;99.90
20528;DHT22;23612;50.894;10.700;2024-01-25T13:20:02;8.20;99.90
20528;DHT22;23612;50.894;10.700;2024-01-25T13:22:28;8.20;99.90
20528;DHT22;23612;50.894;10.700;2024-01-25T13:24:55;8.10;99.90
20528;DHT22;23612;50.894;10.700;2024-01-25T13:27:21;8.10;99.90
20528;DHT22;23612;50.894;10.700;2024-01-25T13:29:46;8.00;99.90
20528;DHT22;23612;50.894;10.700;2024-01-25T13:32:12;8.00;99.90
20528;DHT22;23612;50.894;10.700;2024-01-25T13:34:37;8.20;99.90
20528;DHT22;23612;50.894;10.700;2024-01-25T13:37:02;8.40;99.90
20528;DHT22;23612;50.894;10.700;2024-01-25T13:39:28;8.50;99.90
20528;DHT22;23612;50.894;10.700;2024-01-25T13:41:54;8.70;99.90
20528;DHT22;23612;50.894;10.700;2024-01-25T13:44:20;9.30;99.90
20528;DHT22;23612;50.894;10.700;2024-01-25T13:46:45;10.10;99.90
20528;DHT22;23612;50.894;10.700;2024-01-25T13:49:11;11.50;99.90
20528;DHT22;23612;50.894;10.700;2024-01-25T13:51:36;12.70;99.90
20528;DHT22;23612;50.894;10.700;2024-01-25T13:54:02;13.10;99.90
20528;DHT22;23612;50.894;10.700;2024-01-25T13:56:27;13.40;99.90
20528;DHT22;23612;50.894;10.700;2024-01-25T13:58:53;13.90;99.90
20528;DHT22;23612;50.894;10.700;2024-01-25T14:01:19;13.50;99.90
20528;DHT22;23612;50.894;10.700;2024-01-25T14:03:44;14.00;99.90
20528;DHT22;23612;50.894;10.700;2024-01-25T14:06:10;13.70;99.90
20528;DHT22;23612;50.894;10.700;2024-01-25T14:08:36;13.00;99.90
20528;DHT22;23612;50.894;10.700;2024-01-25T14:11:03;12.20;99.90
20528;DHT22;23612;50.894;10.700;2024-01-25T14:13:29;11.20;99.90
20528;DHT22;23612;50.894;10.700;2024-01-25T14:15:55;10.70;99.90
20528;DHT22;23612;50.894;10.700;2024-01-25T14:18:21;10.20;99.90
20528;DHT22;23612;50.894;10.700;2024-01-25T14:20:46;9.50;99.90
20528;DHT22;23612;50.894;10.700;2024-01-25T14:23:12;8.90;99.90
20528;DHT22;23612;50.894;10.700;2024-01-25T14:25:37;8.70;99.90
20528;DHT22;23612;50.894;10.700;2024-01-25T14:28:03;8.50;99.90
20528;DHT22;23612;50.894;10.700;2024-01-25T14:30:28;8.40;99.90
20528;DHT22;23612;50.894;10.700;2024-01-25T14:32:55;8.40;99.90
20528;DHT22;23612;50.894;10.700;2024-01-25T14:35:21;8.30;99.90
20528;DHT22;23612;50.894;10.700;2024-01-25T14:37:56;8.20;99.90
20528;DHT22;23612;50.894;10.700;2024-01-25T14:40:22;8.00;99.90
20528;DHT22;23612;50.894;10.700;2024-01-25T14:42:48;7.90;99.90
20528;DHT22;23612;50.894;10.700;2024-01-25T14:45:14;7.70;99.90
20528;DHT22;23612;50.894;10.700;2024-01-25T14:47:39;7.60;99.90
20528;DHT22;23612;50.894;10.700;2024-01-25T14:50:05;7.60;99.90
20528;DHT22;23612;50.894;10.700;2024-01-25T14:52:32;7.50;99.90
20528;DHT22;23612;50.894;10.700;2024-01-25T14:55:00;7.40;99.90
20528;DHT22;23612;50.894;10.700;2024-01-25T14:57:25;7.20;99.90
20528;DHT22;23612;50.894;10.700;2024-01-25T14:59:51;7.10;99.90
20528;DHT22;23612;50.894;10.700;2024-01-25T15:02:16;7.00;99.90
20528;DHT22;23612;50.894;10.700;2024-01-25T15:04:42;6.90;99.90
20528;DHT22;23612;50.894;10.700;2024-01-25T15:07:07;6.80;99.90
20528;DHT22;23612;50.894;10.700;2024-01-25T15:09:33;6.80;99.90
20528;DHT22;23612;50.894;10.700;2024-01-25T15:11:58;6.70;99.90
20528;DHT22;23612;50.894;10.700;2024-01-25T15:14:23;6.60;99.90
20528;DHT22;23612;50.894;10.700;2024-01-25T15:16:49;6.60;99.90
20528;DHT22;23612;50.894;10.700;2024-01-25T15:19:14;6.50;99.90
20528;DHT22;23612;50.894;10.700;2024-01-25T15:21:40;6.50;99.90